Sunday, December 16, 2018, 10:10 AM EST
Back to Local

KSYR, Syracuse Hancock International Airport

Location: Syracuse, NY, United States Lat: 43.117
Local Time: 10:10 AM EST (15:10 GMT) Lon: -76.1
Time Zone: US/Eastern Elev: 410 ft

Show me the last for .
Show Decoded

2018-12-16 09:54 METAR KSYR 161454Z 05006KT 10SM OVC085 02/M03 A3005 RMK AO2 SLP177 T00171028
                 56007 $ =
2018-12-16 08:54 METAR KSYR 161354Z 08009KT 10SM FEW080 OVC100 01/M03 A3006 RMK AO2 SLP180
                 T00111028 $ =
2018-12-16 07:54 METAR KSYR 161254Z 07008KT 10SM OVC100 01/M03 A3006 RMK AO2 SLP181 T00061028 $ =
2018-12-16 06:54 METAR KSYR 161154Z 07009KT 10SM SCT110 OVC150 01/M03 A3007 RMK AO2 SLP186
                 T00061028 10006 21017 58013 $ =
2018-12-16 05:54 METAR KSYR 161054Z 06006KT 10SM SCT100 BKN130 OVC150 00/M02 A3009 RMK AO2 SLP191
                 T00001022 $ =
2018-12-16 04:54 METAR KSYR 160954Z 06007KT 10SM SCT150 OVC180 00/M02 A3010 RMK AO2 SLP193
                 T00001022 $ =
2018-12-16 03:54 METAR KSYR 160854Z 10005KT 10SM OVC190 00/M02 A3011 RMK AO2 SLP197 T00001017
                 58020 $ =
2018-12-16 02:54 METAR KSYR 160754Z 08006KT 8SM OVC200 M01/M02 A3013 RMK AO2 SLP204 T10061017 $ =
2018-12-16 01:54 METAR KSYR 160654Z 07004KT 5SM BR FEW004 OVC210 M01/M02 A3016 RMK AO2 SLP213
                 T10111017 $ =
2018-12-16 01:31 METAR KSYR 160631Z 00000KT 3SM R28/3500V4500FT BR FEW002 OVC210 M01/M02 A3017
                 RMK AO2 T10111017 $ =
2018-12-16 01:12 METAR KSYR 160612Z 00000KT 2 1/2SM R28/2400V3500FT BR SCT002 OVC210 M01/M01
                 A3017 RMK AO2 T10111011 $ =
2018-12-16 00:54 METAR KSYR 160554Z 07004KT 2SM R28/3500VP6000FT BR BKN001 OVC210 M01/M02 A3017
                 RMK AO2 SLP218 VIS 1V2 T10111017 10017 21022 58020 $ =
2018-12-16 00:46 METAR KSYR 160546Z 08004KT 2SM R28/4500VP6000FT BR BKN001 OVC210 M01/M02 A3017
                 RMK AO2 VIS 1 NW T10111017 $ =
2018-12-16 00:36 METAR KSYR 160536Z 05003KT 2SM BR BKN002 OVC210 M02/M02 A3018 RMK AO2 T10171022
                 $ =
2018-12-16 00:30 METAR KSYR 160530Z 08004KT 4SM BR SCT002 OVC210 M02/M02 A3019 RMK AO2 T10221022
                 $ =
2018-12-15 23:54 METAR KSYR 160454Z 04003KT 4SM BR OVC210 M02/M02 A3020 RMK AO2 SLP227 T10171022
                 400671022 $ =
2018-12-15 22:54 METAR KSYR 160354Z 00000KT 5SM BR BKN220 M01/M02 A3022 RMK AO2 SLP236 T10111017
                 $ =
2018-12-15 21:54 METAR KSYR 160254Z 00000KT 5SM BR OVC200 00/M01 A3023 RMK AO2 SLP238 T00001011
                 51007 $ =
2018-12-15 20:54 METAR KSYR 160154Z 00000KT 5SM BR OVC200 01/M01 A3022 RMK AO2 SLP235 T00061006 $
                 =
2018-12-15 19:54 METAR KSYR 160054Z 27003KT 6SM BR OVC220 01/M01 A3022 RMK AO2 SLP233 T00061006 $
                 =
2018-12-15 18:54 METAR KSYR 152354Z 35003KT 6SM BR OVC200 01/M01 A3021 RMK AO2 SLP230 T00061006
                 10044 20006 53006 $ =
2018-12-15 17:54 METAR KSYR 152254Z 33003KT 7SM OVC200 02/00 A3020 RMK AO2 SLP226 T00170000 $ =
2018-12-15 16:54 METAR KSYR 152154Z 02003KT 8SM BKN200 OVC240 02/00 A3019 RMK AO2 SLP225
                 T00170000 $ =
2018-12-15 15:54 METAR KSYR 152054Z 00000KT 8SM OVC200 03/01 A3019 RMK AO2 SLP224 T00330006 58008
                 $ =
2018-12-15 15:14 METAR KSYR 152014Z 06004KT 8SM FEW016 OVC200 04/01 A3020 RMK AO2 T00390011 $ =
2018-12-15 14:54 METAR KSYR 151954Z 00000KT 9SM BKN016 OVC210 04/01 A3020 RMK AO2 SLP227
                 T00390011 $ =
2018-12-15 13:54 METAR KSYR 151854Z 10003KT 10SM SCT016 OVC200 04/01 A3021 RMK AO2 SLP231
                 T00390011 $ =
2018-12-15 13:50 METAR KSYR 151850Z 11003KT 10SM SCT016 OVC200 04/01 A3021 RMK AO2 $ =
2018-12-15 12:54 METAR KSYR 151754Z 00000KT 10SM BKN017 OVC200 04/01 A3021 RMK AO2 SLP231
                 T00390006 10044 20028 55010 $ =
2018-12-15 12:33 METAR KSYR 151733Z 01005KT 10SM BKN018 OVC200 04/01 A3021 RMK AO2 T00440006 $ =
2018-12-15 11:54 METAR KSYR 151654Z 00000KT 10SM SCT015 OVC200 04/01 A3021 RMK AO2 SLP229
                 T00440006 $ =
2018-12-15 10:54 METAR KSYR 151554Z 32005KT 8SM SCT010 OVC210 04/01 A3023 RMK AO2 SLP235
                 T00390011 $ =
2018-12-15 10:48 METAR KSYR 151548Z 34005KT 7SM FEW006 SCT010 OVC210 04/01 A3023 RMK AO2 $ =
2018-12-15 10:30 METAR KSYR 151530Z 35008KT 7SM FEW006 BKN010 OVC015 04/02 A3023 RMK AO2
                 T00390017 $ =

Support USWX by starting your Amazon purchase here.